createdAt,value
2023-01-19T00:01:37.541Z,98673.41
2023-01-19T00:04:05.209Z,98678.59
2023-01-19T00:06:32.901Z,98687.88
2023-01-19T00:09:00.507Z,98687.28
2023-01-19T00:11:28.155Z,98688.22
2023-01-19T00:13:55.727Z,98695.50
2023-01-19T00:16:24.717Z,98694.78
2023-01-19T00:18:53.042Z,98690.78
2023-01-19T00:21:21.636Z,98689.84
2023-01-19T00:23:52.381Z,98694.22
2023-01-19T00:26:22.145Z,98690.97
2023-01-19T00:28:50.708Z,98690.53
2023-01-19T00:31:20.466Z,98701.38
2023-01-19T00:33:52.429Z,98698.28
2023-01-19T00:36:20.551Z,98698.81
2023-01-19T00:38:48.127Z,98709.16
2023-01-19T00:41:15.794Z,98704.25
2023-01-19T00:43:43.438Z,98704.44
2023-01-19T00:46:11.658Z,98711.31
2023-01-19T00:48:39.365Z,98716.16
2023-01-19T00:51:08.283Z,98712.69
2023-01-19T00:53:35.874Z,98713.75
2023-01-19T00:56:03.435Z,98721.16
2023-01-19T00:58:30.995Z,98713.84
2023-01-19T01:01:03.575Z,98718.28
2023-01-19T01:03:31.544Z,98726.94
2023-01-19T01:05:59.255Z,98717.72
2023-01-19T01:08:28.316Z,98716.13
2023-01-19T01:10:56.073Z,98720.31
2023-01-19T01:13:26.340Z,98724.72
2023-01-19T01:15:56.708Z,98715.56
2023-01-19T01:18:25.216Z,98714.97
2023-01-19T01:20:55.269Z,98714.97
2023-01-19T01:23:23.803Z,98717.34
2023-01-19T01:25:52.778Z,98722.19
2023-01-19T01:28:20.425Z,98720.00
2023-01-19T01:30:48.080Z,98715.28
2023-01-19T01:33:15.640Z,98722.09
2023-01-19T01:36:03.317Z,98722.91
2023-01-19T01:38:30.883Z,98726.06
2023-01-19T01:40:59.784Z,98723.78
2023-01-19T01:43:43.542Z,98720.13
2023-01-19T01:46:11.230Z,98718.91
2023-01-19T01:48:41.418Z,98721.44
2023-01-19T01:51:27.193Z,98715.31
2023-01-19T01:54:07.025Z,98720.72
2023-01-19T01:56:40.432Z,98719.78
2023-01-19T01:59:12.241Z,98714.59
2023-01-19T02:01:57.778Z,98721.06
2023-01-19T02:04:26.084Z,98718.66
2023-01-19T02:07:11.029Z,98718.72
2023-01-19T02:09:56.400Z,98714.06
2023-01-19T02:12:43.116Z,98721.97
2023-01-19T02:15:18.462Z,98715.13
2023-01-19T02:17:46.224Z,98722.56
2023-01-19T02:20:14.751Z,98719.56
2023-01-19T02:22:48.881Z,98728.53
2023-01-19T02:25:19.965Z,98718.13
2023-01-19T02:27:48.531Z,98718.44
2023-01-19T02:30:17.539Z,98723.09
2023-01-19T02:32:45.256Z,98717.31
2023-01-19T02:35:13.675Z,98719.81
2023-01-19T02:37:44.216Z,98724.59
2023-01-19T02:40:15.514Z,98725.84
2023-01-19T02:42:47.910Z,98726.66
2023-01-19T02:45:19.337Z,98729.38
2023-01-19T02:47:49.130Z,98727.63
2023-01-19T02:50:43.639Z,98733.13
2023-01-19T02:53:37.284Z,98724.25
2023-01-19T02:56:16.789Z,98721.94
2023-01-19T02:58:52.991Z,98722.06
2023-01-19T03:01:29.141Z,98722.63
2023-01-19T03:04:01.871Z,98725.91
2023-01-19T03:06:40.202Z,98717.94
2023-01-19T03:09:15.806Z,98716.44
2023-01-19T03:11:49.514Z,98724.00
2023-01-19T03:14:23.594Z,98722.91
2023-01-19T03:16:55.177Z,98718.28
2023-01-19T03:19:28.101Z,98712.09
2023-01-19T03:21:59.373Z,98703.47
2023-01-19T03:24:31.866Z,98703.47
2023-01-19T03:27:04.686Z,98702.22
2023-01-19T03:29:35.847Z,98700.28
2023-01-19T03:32:10.246Z,98707.13
2023-01-19T03:34:40.046Z,98702.75
2023-01-19T03:37:09.463Z,98700.69
2023-01-19T03:39:37.228Z,98704.91
2023-01-19T03:42:10.020Z,98705.31
2023-01-19T03:44:42.347Z,98699.03
2023-01-19T03:47:12.570Z,98710.81
2023-01-19T03:49:43.204Z,98706.56
2023-01-19T03:52:12.805Z,98712.88
2023-01-19T03:54:41.144Z,98721.53
2023-01-19T03:57:10.038Z,98725.38
2023-01-19T03:59:38.977Z,98745.09
2023-01-19T04:02:06.847Z,98744.56
2023-01-19T04:04:34.688Z,98742.34
2023-01-19T04:07:02.464Z,98745.78
2023-01-19T04:09:30.062Z,98749.22
2023-01-19T04:11:57.770Z,98751.63
2023-01-19T04:14:25.321Z,98748.91
2023-01-19T04:16:54.397Z,98751.28
2023-01-19T04:19:21.955Z,98754.03
2023-01-19T04:21:50.724Z,98765.06
2023-01-19T04:24:18.494Z,98758.69
2023-01-19T04:26:46.093Z,98756.03
2023-01-19T04:29:14.250Z,98758.59
2023-01-19T04:31:41.799Z,98756.19
2023-01-19T04:34:11.143Z,98756.06
2023-01-19T04:36:38.675Z,98761.50
2023-01-19T04:39:08.380Z,98762.91
2023-01-19T04:41:36.123Z,98764.75
2023-01-19T04:44:03.854Z,98760.69
2023-01-19T04:46:31.846Z,98764.75
2023-01-19T04:49:00.450Z,98757.06
2023-01-19T04:51:29.561Z,98759.94
2023-01-19T04:53:57.785Z,98758.19
2023-01-19T04:56:25.393Z,98762.97
2023-01-19T04:58:52.950Z,98763.50
2023-01-19T05:01:20.668Z,98768.50
2023-01-19T05:03:48.320Z,98764.34
2023-01-19T05:06:16.089Z,98764.75
2023-01-19T05:08:45.545Z,98747.03
2023-01-19T05:11:13.224Z,98723.78
2023-01-19T05:13:40.763Z,98732.25
2023-01-19T05:16:09.008Z,98733.06
2023-01-19T05:18:37.147Z,98736.50
2023-01-19T05:21:05.000Z,98740.22
2023-01-19T05:23:32.937Z,98751.41
2023-01-19T05:26:03.278Z,98757.97
2023-01-19T05:28:31.994Z,98756.84
2023-01-19T05:30:59.735Z,98755.19
2023-01-19T05:33:27.733Z,98761.75
2023-01-19T05:35:55.879Z,98766.53
2023-01-19T05:38:34.570Z,98761.94
2023-01-19T05:41:04.318Z,98772.16
2023-01-19T05:43:32.122Z,98772.88
2023-01-19T05:45:59.770Z,98775.38
2023-01-19T05:48:27.340Z,98778.31
2023-01-19T05:50:58.794Z,98788.19
2023-01-19T05:53:26.791Z,98796.91
2023-01-19T05:55:54.417Z,98804.09
2023-01-19T05:58:23.427Z,98800.28
2023-01-19T06:00:51.107Z,98800.22
2023-01-19T06:03:18.856Z,98797.63
2023-01-19T06:05:46.444Z,98799.16
2023-01-19T06:08:14.273Z,98800.34
2023-01-19T06:10:42.025Z,98804.50
2023-01-19T06:13:11.082Z,98795.34
2023-01-19T06:15:39.975Z,98791.41
2023-01-19T06:18:07.561Z,98800.03
2023-01-19T06:20:35.096Z,98796.22
2023-01-19T06:23:02.975Z,98800.75
2023-01-19T06:25:30.703Z,98807.78
2023-01-19T06:27:58.272Z,98803.69
2023-01-19T06:30:25.982Z,98804.75
2023-01-19T06:32:55.592Z,98802.59
2023-01-19T06:35:23.139Z,98802.59
2023-01-19T06:37:50.928Z,98805.47
2023-01-19T06:40:18.854Z,98810.78
2023-01-19T06:42:46.373Z,98816.72
2023-01-19T06:45:13.926Z,98812.91
2023-01-19T06:47:41.501Z,98814.25
2023-01-19T06:50:11.865Z,98820.16
2023-01-19T06:52:42.346Z,98819.91
2023-01-19T06:55:10.760Z,98819.91
2023-01-19T06:57:38.877Z,98823.19
2023-01-19T07:00:08.816Z,98826.78
2023-01-19T07:02:37.060Z,98818.78
2023-01-19T07:05:06.859Z,98830.91
2023-01-19T07:07:35.820Z,98825.69
2023-01-19T07:10:03.462Z,98828.31
2023-01-19T07:12:31.471Z,98835.28
2023-01-19T07:14:59.219Z,98833.91
2023-01-19T07:17:27.072Z,98838.81
2023-01-19T07:19:54.629Z,98845.56
2023-01-19T07:22:22.207Z,98842.97
2023-01-19T07:24:51.117Z,98859.88
2023-01-19T07:27:18.675Z,98857.09
2023-01-19T07:29:46.262Z,98874.94
2023-01-19T07:32:14.664Z,98869.31
2023-01-19T07:34:42.285Z,98876.06
2023-01-19T07:37:09.927Z,98876.06
2023-01-19T07:39:37.553Z,98877.25
2023-01-19T07:42:06.629Z,98885.56
2023-01-19T07:44:34.390Z,98881.41
2023-01-19T07:47:02.023Z,98888.59
2023-01-19T07:49:29.742Z,98885.69
2023-01-19T07:51:57.319Z,98877.06
2023-01-19T07:54:25.277Z,98884.13
2023-01-19T07:56:55.039Z,98888.94
2023-01-19T07:59:24.371Z,98880.28
2023-01-19T08:01:53.395Z,98895.56
2023-01-19T08:04:21.137Z,98888.81
2023-01-19T08:06:49.178Z,98891.56
2023-01-19T08:09:16.760Z,98893.41
2023-01-19T08:11:44.539Z,98891.63
2023-01-19T08:14:12.344Z,98893.25
2023-01-19T08:16:41.263Z,98889.81
2023-01-19T08:19:08.940Z,98888.19
2023-01-19T08:21:38.393Z,98891.47
2023-01-19T08:24:06.583Z,98889.09
2023-01-19T08:26:36.571Z,98890.75
2023-01-19T08:29:06.911Z,98886.78
2023-01-19T08:31:34.735Z,98894.34
2023-01-19T08:34:03.829Z,98892.59
2023-01-19T08:36:31.489Z,98897.94
2023-01-19T08:38:59.316Z,98893.69
2023-01-19T08:41:27.385Z,98898.91
2023-01-19T08:43:55.008Z,98904.25
2023-01-19T08:46:22.996Z,98894.66
2023-01-19T08:48:50.745Z,98898.06
2023-01-19T08:51:20.447Z,98892.84
2023-01-19T08:53:48.038Z,98905.66
2023-01-19T08:56:15.991Z,98894.91
2023-01-19T08:58:46.684Z,98889.41
2023-01-19T09:01:18.541Z,98886.66
2023-01-19T09:03:46.214Z,98890.50
2023-01-19T09:06:17.010Z,98882.53
2023-01-19T09:08:45.978Z,98893.81
2023-01-19T09:11:16.364Z,98895.44
2023-01-19T09:13:44.083Z,98901.94
2023-01-19T09:16:13.287Z,98898.06
2023-01-19T09:18:41.074Z,98889.09
2023-01-19T09:21:09.184Z,98895.16
2023-01-19T09:23:37.261Z,98891.31
2023-01-19T09:26:07.080Z,98898.97
2023-01-19T09:28:34.961Z,98899.38
2023-01-19T09:31:07.425Z,98901.28
2023-01-19T09:33:35.896Z,98900.41
2023-01-19T09:36:03.437Z,98898.59
2023-01-19T09:38:32.859Z,98905.03
2023-01-19T09:41:02.023Z,98906.69
2023-01-19T09:43:38.316Z,98898.59
2023-01-19T09:46:11.639Z,98897.72
2023-01-19T09:48:48.054Z,98898.69
2023-01-19T09:51:22.892Z,98902.94
2023-01-19T09:53:56.630Z,98895.66
2023-01-19T09:56:25.405Z,98899.00
2023-01-19T09:58:54.403Z,98900.56
2023-01-19T10:01:40.383Z,98909.00
2023-01-19T10:04:26.853Z,98899.69
2023-01-19T10:07:04.547Z,98894.84
2023-01-19T10:09:39.279Z,98899.34
2023-01-19T10:12:17.947Z,98903.88
2023-01-19T10:14:54.911Z,98909.25
2023-01-19T10:17:39.507Z,98910.81
2023-01-19T10:20:15.827Z,98902.69
2023-01-19T10:22:44.492Z,98910.53
2023-01-19T10:25:18.520Z,98912.09
2023-01-19T10:27:47.359Z,98911.53
2023-01-19T10:30:23.256Z,98909.88
2023-01-19T10:32:51.818Z,98903.63
2023-01-19T10:35:25.532Z,98905.69
2023-01-19T10:37:56.231Z,98897.34
2023-01-19T10:40:31.939Z,98886.91
2023-01-19T10:42:59.950Z,98891.84
2023-01-19T10:45:32.028Z,98898.19
2023-01-19T10:48:07.218Z,98897.44
2023-01-19T10:50:39.493Z,98903.31
2023-01-19T10:53:19.034Z,98896.78
2023-01-19T10:55:47.379Z,98908.69
2023-01-19T10:58:28.982Z,98911.25
2023-01-19T11:01:14.153Z,98901.31
2023-01-19T11:03:41.986Z,98904.25
2023-01-19T11:06:31.409Z,98900.16
2023-01-19T11:09:13.450Z,98897.56
2023-01-19T11:11:50.051Z,98888.66
2023-01-19T11:14:20.773Z,98903.31
2023-01-19T11:16:52.690Z,98897.38
2023-01-19T11:19:23.217Z,98903.28
2023-01-19T11:21:50.966Z,98899.84
2023-01-19T11:24:18.666Z,98893.16
2023-01-19T11:26:49.008Z,98891.91
2023-01-19T11:29:21.021Z,98899.84
2023-01-19T11:31:50.778Z,98894.19
2023-01-19T11:34:27.601Z,98889.16
2023-01-19T11:37:00.180Z,98886.91
2023-01-19T11:39:29.619Z,98877.84
2023-01-19T11:41:59.978Z,98868.44
2023-01-19T11:44:32.175Z,98868.53
2023-01-19T11:47:05.098Z,98874.06
2023-01-19T11:49:41.372Z,98864.63
2023-01-19T11:52:20.716Z,98856.75
2023-01-19T11:54:55.606Z,98852.88
2023-01-19T11:57:23.381Z,98852.72
2023-01-19T11:59:50.980Z,98857.50
2023-01-19T12:02:27.526Z,98861.03
2023-01-19T12:05:00.287Z,98853.19
2023-01-19T12:07:31.990Z,98855.63
2023-01-19T12:10:08.437Z,98850.88
2023-01-19T12:12:40.406Z,98854.94
2023-01-19T12:15:18.431Z,98856.19
2023-01-19T12:17:50.865Z,98851.94
2023-01-19T12:20:28.007Z,98856.56
2023-01-19T12:23:03.876Z,98858.69
2023-01-19T12:25:43.099Z,98852.22
2023-01-19T12:28:13.525Z,98848.78
2023-01-19T12:30:41.358Z,98854.16
2023-01-19T12:33:34.205Z,98852.47
2023-01-19T12:36:04.038Z,98846.94
2023-01-19T12:38:44.010Z,98846.31
2023-01-19T12:41:24.313Z,98851.88
2023-01-19T12:44:16.748Z,98851.41
2023-01-19T12:46:45.974Z,98856.25
2023-01-19T12:49:29.230Z,98850.66
2023-01-19T12:52:18.397Z,98849.47
2023-01-19T12:54:54.649Z,98860.63
2023-01-19T12:57:27.971Z,98854.13
2023-01-19T13:00:00.944Z,98866.84
2023-01-19T13:02:47.369Z,98862.31
2023-01-19T13:05:23.720Z,98855.69
2023-01-19T13:08:31.208Z,98863.38
2023-01-19T13:11:26.326Z,98866.00
2023-01-19T13:14:35.455Z,98864.94
2023-01-19T13:17:06.475Z,98861.88
2023-01-19T13:19:44.115Z,98858.31
2023-01-19T13:22:49.399Z,98858.63
2023-01-19T13:25:30.304Z,98855.47
2023-01-19T13:27:58.380Z,98864.00
2023-01-19T13:30:29.175Z,98867.72
2023-01-19T13:33:02.521Z,98863.19
2023-01-19T13:35:30.496Z,98861.03
2023-01-19T13:37:59.825Z,98859.53
2023-01-19T13:40:37.571Z,98863.06
2023-01-19T13:43:15.758Z,98867.81
2023-01-19T13:45:51.124Z,98868.69
2023-01-19T13:48:23.291Z,98866.38
2023-01-19T13:51:02.478Z,98869.50
2023-01-19T13:53:30.562Z,98878.19
2023-01-19T13:56:17.375Z,98876.66
2023-01-19T13:58:45.181Z,98884.94
2023-01-19T14:01:23.567Z,98881.88
2023-01-19T14:03:52.380Z,98887.25
2023-01-19T14:06:32.108Z,98887.13
2023-01-19T14:09:10.378Z,98888.88
2023-01-19T14:11:39.313Z,98888.03
2023-01-19T14:14:23.435Z,98896.78
2023-01-19T14:16:51.215Z,98888.72
2023-01-19T14:19:18.778Z,98898.22
2023-01-19T14:21:46.426Z,98896.72
2023-01-19T14:24:18.610Z,98899.13
2023-01-19T14:26:49.140Z,98898.75
2023-01-19T14:29:22.672Z,98899.28
2023-01-19T14:31:52.646Z,98896.88
2023-01-19T14:34:38.807Z,98894.81
2023-01-19T14:37:16.694Z,98901.28
2023-01-19T14:39:49.061Z,98901.97
2023-01-19T14:42:25.366Z,98905.09
2023-01-19T14:44:54.470Z,98908.53
2023-01-19T14:47:32.257Z,98907.66
2023-01-19T14:50:04.902Z,98900.84
2023-01-19T14:52:35.995Z,98906.00
2023-01-19T14:55:08.167Z,98908.31
2023-01-19T14:57:37.879Z,98912.59
2023-01-19T15:00:17.679Z,98912.09
2023-01-19T15:02:45.521Z,98913.16
2023-01-19T15:05:13.821Z,98911.19
2023-01-19T15:07:44.407Z,98911.38
2023-01-19T15:10:17.738Z,98912.03
2023-01-19T15:12:46.874Z,98915.66
2023-01-19T15:15:16.607Z,98915.53
2023-01-19T15:17:44.669Z,98925.78
2023-01-19T15:20:18.499Z,98926.97
2023-01-19T15:22:46.728Z,98924.16
2023-01-19T15:25:15.867Z,98917.31
2023-01-19T15:27:44.030Z,98923.16
2023-01-19T15:30:18.500Z,98913.94
2023-01-19T15:32:46.649Z,98921.59
2023-01-19T15:35:16.355Z,98926.03
2023-01-19T15:37:43.986Z,98920.66
2023-01-19T15:40:12.442Z,98928.31
2023-01-19T15:42:40.293Z,98928.03
2023-01-19T15:45:34.860Z,98925.13
2023-01-19T15:48:04.979Z,98927.69
2023-01-19T15:50:32.968Z,98926.09
2023-01-19T15:53:00.569Z,98922.66
2023-01-19T15:55:28.824Z,98926.03
2023-01-19T15:58:01.210Z,98934.31
2023-01-19T16:00:31.116Z,98928.66
2023-01-19T16:02:59.659Z,98933.41
2023-01-19T16:05:41.513Z,98935.09
2023-01-19T16:08:10.286Z,98929.56
2023-01-19T16:10:37.863Z,98932.19
2023-01-19T16:13:05.554Z,98932.84
2023-01-19T16:15:36.250Z,98934.56
2023-01-19T16:18:04.255Z,98939.81
2023-01-19T16:20:31.998Z,98945.72
2023-01-19T16:23:13.772Z,98943.06
2023-01-19T16:25:42.363Z,98942.69
2023-01-19T16:28:09.967Z,98949.53
2023-01-19T16:30:38.927Z,98947.78
2023-01-19T16:33:06.636Z,98945.84
2023-01-19T16:35:34.395Z,98948.38
2023-01-19T16:38:02.070Z,98957.56
2023-01-19T16:40:29.710Z,98953.34
2023-01-19T16:42:57.309Z,98949.84
2023-01-19T16:45:25.313Z,98956.97
2023-01-19T16:47:54.246Z,98949.38
2023-01-19T16:50:21.817Z,98950.34
2023-01-19T16:52:50.572Z,98954.69
2023-01-19T16:55:18.391Z,98965.53
2023-01-19T16:57:45.970Z,98966.34
2023-01-19T17:00:14.675Z,98964.69
2023-01-19T17:02:43.038Z,98970.56
2023-01-19T17:05:12.470Z,98969.31
2023-01-19T17:07:40.226Z,98966.03
2023-01-19T17:10:09.594Z,98968.06
2023-01-19T17:12:37.574Z,98964.84
2023-01-19T17:15:06.078Z,98971.19
2023-01-19T17:17:34.890Z,98964.38
2023-01-19T17:20:03.492Z,98969.28
2023-01-19T17:22:32.411Z,98963.09
2023-01-19T17:25:00.010Z,98969.59
2023-01-19T17:27:27.667Z,98970.13
2023-01-19T17:29:55.233Z,98975.09
2023-01-19T17:32:22.858Z,98974.25
2023-01-19T17:34:50.618Z,98975.25
2023-01-19T17:37:18.264Z,98977.19
2023-01-19T17:39:47.212Z,98983.88
2023-01-19T17:42:14.760Z,98972.06
2023-01-19T17:44:42.847Z,98977.56
2023-01-19T17:47:10.443Z,98983.88
2023-01-19T17:49:38.102Z,98982.38
2023-01-19T17:52:06.078Z,98987.78
2023-01-19T17:54:33.800Z,98985.28
2023-01-19T17:57:02.768Z,98985.59
2023-01-19T17:59:30.461Z,98985.00
2023-01-19T18:01:58.021Z,98994.69
2023-01-19T18:04:25.730Z,98990.50
2023-01-19T18:06:53.434Z,98994.59
2023-01-19T18:09:21.059Z,98999.97
2023-01-19T18:11:48.657Z,98995.97
2023-01-19T18:14:17.581Z,98997.03
2023-01-19T18:16:45.244Z,99006.25
2023-01-19T18:19:12.847Z,99005.59
2023-01-19T18:21:40.539Z,98996.09
2023-01-19T18:24:08.590Z,99005.75
2023-01-19T18:26:37.561Z,99001.22
2023-01-19T18:29:05.253Z,99002.88
2023-01-19T18:31:34.363Z,99000.63
2023-01-19T18:34:02.198Z,99006.34
2023-01-19T18:36:31.873Z,99007.81
2023-01-19T18:38:59.463Z,99003.94
2023-01-19T18:41:28.998Z,99001.31
2023-01-19T18:43:58.717Z,99000.41
2023-01-19T18:46:27.326Z,99005.47
2023-01-19T18:48:56.384Z,99009.47
2023-01-19T18:51:24.034Z,99007.47
2023-01-19T18:53:51.685Z,99015.09
2023-01-19T18:56:19.333Z,99019.53
2023-01-19T18:58:47.146Z,99012.47
2023-01-19T19:01:20.595Z,99012.69
2023-01-19T19:03:48.336Z,99016.25
2023-01-19T19:06:20.488Z,99018.47
2023-01-19T19:08:50.038Z,99010.25
2023-01-19T19:11:17.804Z,99014.53
2023-01-19T19:13:45.638Z,99021.28
2023-01-19T19:16:14.307Z,99009.91
2023-01-19T19:18:42.181Z,99010.88
2023-01-19T19:21:11.456Z,99009.94
2023-01-19T19:23:40.483Z,99011.97
2023-01-19T19:26:10.569Z,99011.84
2023-01-19T19:28:39.307Z,99022.59
2023-01-19T19:31:09.161Z,99009.00
2023-01-19T19:33:37.644Z,99009.81
2023-01-19T19:36:06.761Z,99016.81
2023-01-19T19:38:36.783Z,99017.78
2023-01-19T19:41:12.575Z,99018.59
2023-01-19T19:43:40.887Z,99020.53
2023-01-19T19:46:10.468Z,99016.00
2023-01-19T19:48:39.481Z,99011.44
2023-01-19T19:51:17.716Z,99020.25
2023-01-19T19:53:46.448Z,99014.75
2023-01-19T19:56:15.997Z,99022.22
2023-01-19T19:58:44.173Z,99022.44
2023-01-19T20:01:13.857Z,99024.38
2023-01-19T20:03:42.031Z,99023.41
2023-01-19T20:06:11.892Z,99030.72
2023-01-19T20:08:39.645Z,99027.09
2023-01-19T20:11:09.369Z,99037.28
2023-01-19T20:13:39.758Z,99041.16
2023-01-19T20:16:10.870Z,99039.22
2023-01-19T20:18:39.703Z,99043.47
2023-01-19T20:21:12.514Z,99039.47
2023-01-19T20:23:40.303Z,99043.47
2023-01-19T20:26:09.390Z,99041.53
2023-01-19T20:28:39.423Z,99047.13
2023-01-19T20:31:12.338Z,99044.25
2023-01-19T20:33:40.146Z,99055.41
2023-01-19T20:36:08.638Z,99047.00
2023-01-19T20:38:36.527Z,99043.00
2023-01-19T20:41:04.672Z,99046.88
2023-01-19T20:43:32.657Z,99045.84
2023-01-19T20:46:02.246Z,99046.56
2023-01-19T20:48:30.172Z,99045.78
2023-01-19T20:51:01.682Z,99043.56
2023-01-19T20:53:30.498Z,99045.66
2023-01-19T20:55:58.238Z,99050.94
2023-01-19T20:58:26.117Z,99058.63
2023-01-19T21:00:53.747Z,99058.47
2023-01-19T21:03:22.823Z,99062.63
2023-01-19T21:05:50.796Z,99063.72
2023-01-19T21:08:18.665Z,99062.06
2023-01-19T21:10:46.365Z,99071.28
2023-01-19T21:13:14.156Z,99073.91
2023-01-19T21:15:41.729Z,99070.88
2023-01-19T21:18:09.304Z,99080.03
2023-01-19T21:20:38.398Z,99083.47
2023-01-19T21:23:05.965Z,99087.28
2023-01-19T21:25:33.632Z,99092.25
2023-01-19T21:28:01.214Z,99092.78
2023-01-19T21:30:29.497Z,99098.31
2023-01-19T21:32:57.147Z,99099.97
2023-01-19T21:35:24.771Z,99099.28
2023-01-19T21:37:53.907Z,99110.94
2023-01-19T21:40:21.573Z,99106.25
2023-01-19T21:42:49.104Z,99110.88
2023-01-19T21:45:17.516Z,99104.72
2023-01-19T21:47:45.087Z,99104.59
2023-01-19T21:50:13.246Z,99111.19
2023-01-19T21:52:40.843Z,99100.03
2023-01-19T21:55:10.553Z,99113.91
2023-01-19T21:57:38.295Z,99117.38
2023-01-19T22:00:08.009Z,99113.91
2023-01-19T22:02:38.912Z,99123.28
2023-01-19T22:05:07.511Z,99129.16
2023-01-19T22:07:35.060Z,99126.19
2023-01-19T22:10:02.635Z,99129.34
2023-01-19T22:12:32.707Z,99134.34
2023-01-19T22:15:00.237Z,99131.56
2023-01-19T22:17:27.787Z,99130.00
2023-01-19T22:19:55.429Z,99138.25
2023-01-19T22:22:23.174Z,99138.72
2023-01-19T22:24:50.864Z,99146.25
2023-01-19T22:27:18.610Z,99135.41
2023-01-19T22:29:47.985Z,99140.09
2023-01-19T22:32:15.663Z,99140.19
2023-01-19T22:34:43.260Z,99143.28
2023-01-19T22:37:10.826Z,99144.53
2023-01-19T22:39:38.429Z,99148.88
2023-01-19T22:42:06.067Z,99138.03
2023-01-19T22:44:33.648Z,99143.41
2023-01-19T22:47:02.612Z,99144.47
2023-01-19T22:49:30.410Z,99148.09
2023-01-19T22:51:58.155Z,99147.84
2023-01-19T22:54:25.694Z,99153.16
2023-01-19T22:56:53.327Z,99146.41
2023-01-19T22:59:20.951Z,99145.38
2023-01-19T23:01:50.555Z,99142.28
2023-01-19T23:04:19.754Z,99143.41
2023-01-19T23:06:50.506Z,99140.94
2023-01-19T23:09:18.807Z,99143.66
2023-01-19T23:11:50.442Z,99135.38
2023-01-19T23:14:20.325Z,99140.53
2023-01-19T23:16:48.024Z,99138.94
2023-01-19T23:19:17.072Z,99151.25
2023-01-19T23:21:46.835Z,99141.25
2023-01-19T23:24:14.418Z,99147.50
2023-01-19T23:26:41.972Z,99151.81
2023-01-19T23:29:12.775Z,99152.41
2023-01-19T23:31:43.715Z,99153.78
2023-01-19T23:34:13.083Z,99161.66
2023-01-19T23:36:42.427Z,99157.13
2023-01-19T23:39:15.507Z,99166.59
2023-01-19T23:41:43.086Z,99171.47
2023-01-19T23:44:10.945Z,99165.19
2023-01-19T23:46:38.714Z,99170.56
2023-01-19T23:49:06.589Z,99165.72
2023-01-19T23:51:34.606Z,99163.59
2023-01-19T23:54:02.828Z,99168.56
2023-01-19T23:56:33.927Z,99174.84
2023-01-19T23:59:04.270Z,99172.72
